sensor_id;sensor_type;location;lat;lon;timestamp;P1;durP1;ratioP1;P2;durP2;ratioP2
11098;SDS011;12223;42.650;23.364;2022-11-18T00:02:20;58.87;;;55.17;;
11098;SDS011;12223;42.650;23.364;2022-11-18T00:04:47;68.30;;;64.23;;
11098;SDS011;12223;42.650;23.364;2022-11-18T00:07:14;28.80;;;26.00;;
11098;SDS011;12223;42.650;23.364;2022-11-18T00:09:41;24.20;;;21.77;;
11098;SDS011;12223;42.650;23.364;2022-11-18T00:12:07;65.20;;;61.40;;
11098;SDS011;12223;42.650;23.364;2022-11-18T00:14:53;161.87;;;154.37;;
11098;SDS011;12223;42.650;23.364;2022-11-18T00:17:19;110.23;;;104.60;;
11098;SDS011;12223;42.650;23.364;2022-11-18T00:19:46;232.27;;;221.53;;
11098;SDS011;12223;42.650;23.364;2022-11-18T00:22:13;211.47;;;201.70;;
11098;SDS011;12223;42.650;23.364;2022-11-18T00:24:41;170.40;;;162.90;;
11098;SDS011;12223;42.650;23.364;2022-11-18T00:27:07;152.70;;;145.47;;
11098;SDS011;12223;42.650;23.364;2022-11-18T00:29:34;158.87;;;151.63;;
11098;SDS011;12223;42.650;23.364;2022-11-18T00:32:02;32.23;;;29.47;;
11098;SDS011;12223;42.650;23.364;2022-11-18T00:34:29;107.00;;;99.13;;
11098;SDS011;12223;42.650;23.364;2022-11-18T00:36:56;98.77;;;92.57;;
11098;SDS011;12223;42.650;23.364;2022-11-18T00:39:23;51.30;;;47.70;;
11098;SDS011;12223;42.650;23.364;2022-11-18T00:41:50;45.27;;;41.77;;
11098;SDS011;12223;42.650;23.364;2022-11-18T00:44:34;58.87;;;55.17;;
11098;SDS011;12223;42.650;23.364;2022-11-18T00:47:02;59.73;;;55.37;;
11098;SDS011;12223;42.650;23.364;2022-11-18T00:49:30;53.40;;;48.50;;
11098;SDS011;12223;42.650;23.364;2022-11-18T00:51:56;104.10;;;39.73;;
11098;SDS011;12223;42.650;23.364;2022-11-18T00:54:23;49.37;;;37.33;;
11098;SDS011;12223;42.650;23.364;2022-11-18T00:56:50;52.80;;;49.13;;
11098;SDS011;12223;42.650;23.364;2022-11-18T00:59:17;46.70;;;43.67;;
11098;SDS011;12223;42.650;23.364;2022-11-18T01:01:43;32.00;;;29.60;;
11098;SDS011;12223;42.650;23.364;2022-11-18T01:04:12;51.87;;;44.83;;
11098;SDS011;12223;42.650;23.364;2022-11-18T01:06:39;43.73;;;39.67;;
11098;SDS011;12223;42.650;23.364;2022-11-18T01:09:06;34.87;;;30.90;;
11098;SDS011;12223;42.650;23.364;2022-11-18T01:11:33;49.83;;;45.07;;
11098;SDS011;12223;42.650;23.364;2022-11-18T01:14:17;41.00;;;37.40;;
11098;SDS011;12223;42.650;23.364;2022-11-18T01:16:44;33.83;;;30.77;;
11098;SDS011;12223;42.650;23.364;2022-11-18T01:19:16;40.97;;;37.57;;
11098;SDS011;12223;42.650;23.364;2022-11-18T01:21:43;44.30;;;40.30;;
11098;SDS011;12223;42.650;23.364;2022-11-18T01:24:10;32.93;;;29.90;;
11098;SDS011;12223;42.650;23.364;2022-11-18T01:26:36;32.47;;;29.27;;
11098;SDS011;12223;42.650;23.364;2022-11-18T01:29:03;33.53;;;30.03;;
11098;SDS011;12223;42.650;23.364;2022-11-18T01:31:30;32.50;;;28.83;;
11098;SDS011;12223;42.650;23.364;2022-11-18T01:33:57;35.70;;;32.83;;
11098;SDS011;12223;42.650;23.364;2022-11-18T01:36:26;89.57;;;25.33;;
11098;SDS011;12223;42.650;23.364;2022-11-18T01:38:53;54.50;;;25.80;;
11098;SDS011;12223;42.650;23.364;2022-11-18T01:41:22;27.83;;;25.33;;
11098;SDS011;12223;42.650;23.364;2022-11-18T01:43:52;36.67;;;33.67;;
11098;SDS011;12223;42.650;23.364;2022-11-18T01:46:21;25.00;;;22.43;;
11098;SDS011;12223;42.650;23.364;2022-11-18T01:48:49;28.43;;;25.87;;
11098;SDS011;12223;42.650;23.364;2022-11-18T01:51:21;38.47;;;35.70;;
11098;SDS011;12223;42.650;23.364;2022-11-18T01:53:55;35.73;;;32.73;;
11098;SDS011;12223;42.650;23.364;2022-11-18T01:56:27;36.80;;;34.03;;
11098;SDS011;12223;42.650;23.364;2022-11-18T01:59:00;37.00;;;33.87;;
11098;SDS011;12223;42.650;23.364;2022-11-18T02:01:31;35.63;;;32.53;;
11098;SDS011;12223;42.650;23.364;2022-11-18T02:03:58;33.60;;;30.53;;
11098;SDS011;12223;42.650;23.364;2022-11-18T02:06:26;33.33;;;30.07;;
11098;SDS011;12223;42.650;23.364;2022-11-18T02:08:53;63.80;;;59.63;;
11098;SDS011;12223;42.650;23.364;2022-11-18T02:11:21;76.63;;;72.00;;
11098;SDS011;12223;42.650;23.364;2022-11-18T02:14:06;66.93;;;62.63;;
11098;SDS011;12223;42.650;23.364;2022-11-18T02:16:38;64.80;;;60.47;;
11098;SDS011;12223;42.650;23.364;2022-11-18T02:19:21;73.87;;;68.73;;
11098;SDS011;12223;42.650;23.364;2022-11-18T02:22:15;62.47;;;57.93;;
11098;SDS011;12223;42.650;23.364;2022-11-18T02:24:55;56.23;;;52.70;;
11098;SDS011;12223;42.650;23.364;2022-11-18T02:30:38;24.73;;;22.20;;
11098;SDS011;12223;42.650;23.364;2022-11-18T02:33:10;22.80;;;20.67;;
11098;SDS011;12223;42.650;23.364;2022-11-18T02:35:41;30.33;;;28.00;;
11098;SDS011;12223;42.650;23.364;2022-11-18T02:38:10;30.27;;;27.57;;
11098;SDS011;12223;42.650;23.364;2022-11-18T02:40:42;40.13;;;25.77;;
11098;SDS011;12223;42.650;23.364;2022-11-18T02:43:12;29.63;;;26.90;;
11098;SDS011;12223;42.650;23.364;2022-11-18T02:45:47;30.77;;;23.97;;
11098;SDS011;12223;42.650;23.364;2022-11-18T02:48:17;27.90;;;24.70;;
11098;SDS011;12223;42.650;23.364;2022-11-18T02:50:47;24.43;;;21.90;;
11098;SDS011;12223;42.650;23.364;2022-11-18T02:53:16;27.83;;;24.83;;
11098;SDS011;12223;42.650;23.364;2022-11-18T02:55:45;29.90;;;26.70;;
11098;SDS011;12223;42.650;23.364;2022-11-18T02:58:13;29.17;;;21.13;;
11098;SDS011;12223;42.650;23.364;2022-11-18T03:00:44;102.53;;;21.90;;
11098;SDS011;12223;42.650;23.364;2022-11-18T03:03:25;40.27;;;21.50;;
11098;SDS011;12223;42.650;23.364;2022-11-18T03:05:56;45.90;;;22.50;;
11098;SDS011;12223;42.650;23.364;2022-11-18T03:08:31;45.70;;;21.83;;
11098;SDS011;12223;42.650;23.364;2022-11-18T03:11:06;82.93;;;20.17;;
11098;SDS011;12223;42.650;23.364;2022-11-18T03:13:40;66.07;;;19.57;;
11098;SDS011;12223;42.650;23.364;2022-11-18T03:16:20;123.77;;;25.57;;
11098;SDS011;12223;42.650;23.364;2022-11-18T03:18:51;67.63;;;22.63;;
11098;SDS011;12223;42.650;23.364;2022-11-18T03:21:28;35.97;;;29.40;;
11098;SDS011;12223;42.650;23.364;2022-11-18T03:24:03;86.20;;;29.70;;
11098;SDS011;12223;42.650;23.364;2022-11-18T03:26:37;31.77;;;28.57;;
11098;SDS011;12223;42.650;23.364;2022-11-18T03:29:09;42.17;;;38.80;;
11098;SDS011;12223;42.650;23.364;2022-11-18T03:31:44;59.40;;;55.30;;
11098;SDS011;12223;42.650;23.364;2022-11-18T03:34:15;45.90;;;42.17;;
11098;SDS011;12223;42.650;23.364;2022-11-18T03:36:47;48.30;;;43.23;;
11098;SDS011;12223;42.650;23.364;2022-11-18T03:39:17;92.40;;;48.20;;
11098;SDS011;12223;42.650;23.364;2022-11-18T03:41:48;56.43;;;30.33;;
11098;SDS011;12223;42.650;23.364;2022-11-18T03:44:19;46.87;;;23.97;;
11098;SDS011;12223;42.650;23.364;2022-11-18T03:46:50;58.33;;;27.40;;
11098;SDS011;12223;42.650;23.364;2022-11-18T03:49:24;92.83;;;26.77;;
11098;SDS011;12223;42.650;23.364;2022-11-18T03:51:55;30.57;;;20.20;;
11098;SDS011;12223;42.650;23.364;2022-11-18T03:54:28;35.30;;;19.67;;
11098;SDS011;12223;42.650;23.364;2022-11-18T03:56:56;39.67;;;21.17;;
11098;SDS011;12223;42.650;23.364;2022-11-18T03:59:27;91.80;;;37.37;;
11098;SDS011;12223;42.650;23.364;2022-11-18T04:02:02;48.37;;;26.63;;
11098;SDS011;12223;42.650;23.364;2022-11-18T04:04:34;61.90;;;26.63;;
11098;SDS011;12223;42.650;23.364;2022-11-18T04:07:02;42.67;;;34.17;;
11098;SDS011;12223;42.650;23.364;2022-11-18T04:09:34;57.70;;;32.80;;
11098;SDS011;12223;42.650;23.364;2022-11-18T04:12:07;140.57;;;42.40;;
11098;SDS011;12223;42.650;23.364;2022-11-18T04:14:38;99.93;;;93.33;;
11098;SDS011;12223;42.650;23.364;2022-11-18T04:17:09;40.57;;;30.23;;
11098;SDS011;12223;42.650;23.364;2022-11-18T04:19:38;51.13;;;26.73;;
11098;SDS011;12223;42.650;23.364;2022-11-18T04:22:05;80.53;;;75.17;;
11098;SDS011;12223;42.650;23.364;2022-11-18T04:24:32;78.47;;;70.83;;
11098;SDS011;12223;42.650;23.364;2022-11-18T04:26:59;95.43;;;68.30;;
11098;SDS011;12223;42.650;23.364;2022-11-18T04:29:26;127.53;;;113.93;;
11098;SDS011;12223;42.650;23.364;2022-11-18T04:31:53;91.43;;;51.77;;
11098;SDS011;12223;42.650;23.364;2022-11-18T04:34:21;108.33;;;36.37;;
11098;SDS011;12223;42.650;23.364;2022-11-18T04:36:48;115.07;;;37.70;;
11098;SDS011;12223;42.650;23.364;2022-11-18T04:39:16;117.03;;;34.73;;
11098;SDS011;12223;42.650;23.364;2022-11-18T04:41:43;90.83;;;54.90;;
11098;SDS011;12223;42.650;23.364;2022-11-18T04:44:22;89.17;;;58.70;;
11098;SDS011;12223;42.650;23.364;2022-11-18T04:46:49;114.87;;;58.27;;
11098;SDS011;12223;42.650;23.364;2022-11-18T04:49:16;103.90;;;93.57;;
11098;SDS011;12223;42.650;23.364;2022-11-18T04:51:45;122.93;;;91.70;;
11098;SDS011;12223;42.650;23.364;2022-11-18T04:54:12;107.10;;;47.30;;
11098;SDS011;12223;42.650;23.364;2022-11-18T04:56:40;138.90;;;55.20;;
11098;SDS011;12223;42.650;23.364;2022-11-18T04:59:08;117.97;;;51.80;;
11098;SDS011;12223;42.650;23.364;2022-11-18T05:01:35;192.37;;;81.60;;
11098;SDS011;12223;42.650;23.364;2022-11-18T05:04:03;159.33;;;117.27;;
11098;SDS011;12223;42.650;23.364;2022-11-18T05:06:31;164.43;;;73.53;;
11098;SDS011;12223;42.650;23.364;2022-11-18T05:09:00;133.60;;;85.60;;
11098;SDS011;12223;42.650;23.364;2022-11-18T05:11:27;106.50;;;77.83;;
11098;SDS011;12223;42.650;23.364;2022-11-18T05:14:12;172.17;;;91.63;;
11098;SDS011;12223;42.650;23.364;2022-11-18T05:16:39;121.23;;;109.33;;
11098;SDS011;12223;42.650;23.364;2022-11-18T05:19:06;105.27;;;53.90;;
11098;SDS011;12223;42.650;23.364;2022-11-18T05:21:34;148.50;;;76.20;;
11098;SDS011;12223;42.650;23.364;2022-11-18T05:24:05;114.70;;;83.40;;
11098;SDS011;12223;42.650;23.364;2022-11-18T05:26:32;99.37;;;90.67;;
11098;SDS011;12223;42.650;23.364;2022-11-18T05:28:58;56.87;;;43.20;;
11098;SDS011;12223;42.650;23.364;2022-11-18T05:31:25;70.93;;;44.40;;
11098;SDS011;12223;42.650;23.364;2022-11-18T05:33:52;99.73;;;57.87;;
11098;SDS011;12223;42.650;23.364;2022-11-18T05:36:19;77.73;;;69.33;;
11098;SDS011;12223;42.650;23.364;2022-11-18T05:38:46;84.27;;;69.93;;
11098;SDS011;12223;42.650;23.364;2022-11-18T05:41:14;83.67;;;75.33;;
11098;SDS011;12223;42.650;23.364;2022-11-18T05:43:55;105.97;;;68.00;;
11098;SDS011;12223;42.650;23.364;2022-11-18T05:46:22;172.73;;;66.17;;
11098;SDS011;12223;42.650;23.364;2022-11-18T05:48:49;121.67;;;41.50;;
11098;SDS011;12223;42.650;23.364;2022-11-18T05:51:16;74.60;;;42.60;;
11098;SDS011;12223;42.650;23.364;2022-11-18T05:53:43;91.40;;;41.03;;
11098;SDS011;12223;42.650;23.364;2022-11-18T05:56:13;131.20;;;38.67;;
11098;SDS011;12223;42.650;23.364;2022-11-18T05:58:44;118.50;;;41.77;;
11098;SDS011;12223;42.650;23.364;2022-11-18T06:01:11;209.13;;;45.97;;
11098;SDS011;12223;42.650;23.364;2022-11-18T06:03:43;69.23;;;42.27;;
11098;SDS011;12223;42.650;23.364;2022-11-18T06:06:11;86.43;;;46.87;;
11098;SDS011;12223;42.650;23.364;2022-11-18T06:08:41;111.00;;;76.30;;
11098;SDS011;12223;42.650;23.364;2022-11-18T06:11:11;87.03;;;71.50;;
11098;SDS011;12223;42.650;23.364;2022-11-18T06:13:44;107.10;;;64.80;;
11098;SDS011;12223;42.650;23.364;2022-11-18T06:16:19;84.97;;;64.63;;
11098;SDS011;12223;42.650;23.364;2022-11-18T06:18:48;156.77;;;90.20;;
11098;SDS011;12223;42.650;23.364;2022-11-18T06:21:15;98.70;;;83.13;;
11098;SDS011;12223;42.650;23.364;2022-11-18T06:23:42;96.80;;;69.87;;
11098;SDS011;12223;42.650;23.364;2022-11-18T06:26:09;210.97;;;92.43;;
11098;SDS011;12223;42.650;23.364;2022-11-18T06:28:45;155.60;;;59.30;;
11098;SDS011;12223;42.650;23.364;2022-11-18T06:31:13;139.70;;;56.43;;
11098;SDS011;12223;42.650;23.364;2022-11-18T06:33:41;208.83;;;62.40;;
11098;SDS011;12223;42.650;23.364;2022-11-18T06:36:08;109.53;;;69.80;;
11098;SDS011;12223;42.650;23.364;2022-11-18T06:38:36;139.70;;;94.87;;
11098;SDS011;12223;42.650;23.364;2022-11-18T06:41:02;119.70;;;62.87;;
11098;SDS011;12223;42.650;23.364;2022-11-18T06:43:29;205.13;;;96.20;;
11098;SDS011;12223;42.650;23.364;2022-11-18T06:46:07;178.40;;;60.23;;
11098;SDS011;12223;42.650;23.364;2022-11-18T06:48:53;99.73;;;89.67;;
11098;SDS011;12223;42.650;23.364;2022-11-18T06:51:20;232.20;;;70.90;;
11098;SDS011;12223;42.650;23.364;2022-11-18T06:53:48;325.80;;;74.13;;
11098;SDS011;12223;42.650;23.364;2022-11-18T06:56:15;143.63;;;59.37;;
11098;SDS011;12223;42.650;23.364;2022-11-18T06:58:43;249.67;;;62.83;;
11098;SDS011;12223;42.650;23.364;2022-11-18T07:01:13;115.03;;;49.57;;
11098;SDS011;12223;42.650;23.364;2022-11-18T07:03:41;289.47;;;58.00;;
11098;SDS011;12223;42.650;23.364;2022-11-18T07:06:09;192.57;;;55.10;;
11098;SDS011;12223;42.650;23.364;2022-11-18T07:08:37;171.77;;;68.00;;
11098;SDS011;12223;42.650;23.364;2022-11-18T07:11:05;145.57;;;54.03;;
11098;SDS011;12223;42.650;23.364;2022-11-18T07:13:34;141.63;;;82.20;;
11098;SDS011;12223;42.650;23.364;2022-11-18T07:16:02;91.63;;;61.07;;
11098;SDS011;12223;42.650;23.364;2022-11-18T07:18:32;87.97;;;45.27;;
11098;SDS011;12223;42.650;23.364;2022-11-18T07:21:01;203.17;;;45.77;;
11098;SDS011;12223;42.650;23.364;2022-11-18T07:23:29;136.27;;;52.20;;
11098;SDS011;12223;42.650;23.364;2022-11-18T07:25:56;179.20;;;53.80;;
11098;SDS011;12223;42.650;23.364;2022-11-18T07:28:23;124.13;;;45.23;;
11098;SDS011;12223;42.650;23.364;2022-11-18T07:30:50;158.57;;;56.20;;
11098;SDS011;12223;42.650;23.364;2022-11-18T07:33:17;149.87;;;42.57;;
11098;SDS011;12223;42.650;23.364;2022-11-18T07:35:46;91.27;;;48.67;;
11098;SDS011;12223;42.650;23.364;2022-11-18T07:38:13;119.27;;;62.87;;
11098;SDS011;12223;42.650;23.364;2022-11-18T07:40:40;87.63;;;31.73;;
11098;SDS011;12223;42.650;23.364;2022-11-18T07:43:07;104.97;;;31.27;;
11098;SDS011;12223;42.650;23.364;2022-11-18T07:45:34;114.27;;;29.83;;
11098;SDS011;12223;42.650;23.364;2022-11-18T07:48:01;73.20;;;26.70;;
11098;SDS011;12223;42.650;23.364;2022-11-18T07:50:28;66.40;;;32.97;;
11098;SDS011;12223;42.650;23.364;2022-11-18T07:52:56;107.87;;;35.93;;
11098;SDS011;12223;42.650;23.364;2022-11-18T07:55:24;82.27;;;28.53;;
11098;SDS011;12223;42.650;23.364;2022-11-18T07:57:51;48.57;;;28.93;;
11098;SDS011;12223;42.650;23.364;2022-11-18T08:00:18;63.57;;;27.40;;
11098;SDS011;12223;42.650;23.364;2022-11-18T08:02:48;49.27;;;23.00;;
11098;SDS011;12223;42.650;23.364;2022-11-18T08:05:16;117.07;;;35.57;;
11098;SDS011;12223;42.650;23.364;2022-11-18T08:07:43;97.70;;;32.73;;
11098;SDS011;12223;42.650;23.364;2022-11-18T08:10:11;101.83;;;72.20;;
11098;SDS011;12223;42.650;23.364;2022-11-18T08:12:38;64.00;;;37.10;;
11098;SDS011;12223;42.650;23.364;2022-11-18T08:15:05;52.27;;;30.17;;
11098;SDS011;12223;42.650;23.364;2022-11-18T08:17:33;53.07;;;30.77;;
11098;SDS011;12223;42.650;23.364;2022-11-18T08:20:00;82.83;;;30.80;;
11098;SDS011;12223;42.650;23.364;2022-11-18T08:22:26;95.33;;;35.77;;
11098;SDS011;12223;42.650;23.364;2022-11-18T08:24:53;61.43;;;33.00;;
11098;SDS011;12223;42.650;23.364;2022-11-18T08:27:23;64.87;;;32.93;;
11098;SDS011;12223;42.650;23.364;2022-11-18T08:29:49;82.10;;;40.00;;
11098;SDS011;12223;42.650;23.364;2022-11-18T08:32:16;56.07;;;33.63;;
11098;SDS011;12223;42.650;23.364;2022-11-18T08:34:44;52.63;;;32.43;;
11098;SDS011;12223;42.650;23.364;2022-11-18T08:37:11;61.20;;;48.43;;
11098;SDS011;12223;42.650;23.364;2022-11-18T08:39:38;72.67;;;43.30;;
11098;SDS011;12223;42.650;23.364;2022-11-18T08:42:04;81.67;;;68.90;;
11098;SDS011;12223;42.650;23.364;2022-11-18T08:44:33;94.83;;;75.20;;
11098;SDS011;12223;42.650;23.364;2022-11-18T08:47:00;59.17;;;42.90;;
11098;SDS011;12223;42.650;23.364;2022-11-18T08:49:27;62.87;;;55.47;;
11098;SDS011;12223;42.650;23.364;2022-11-18T08:51:54;58.40;;;39.40;;
11098;SDS011;12223;42.650;23.364;2022-11-18T08:54:23;58.60;;;46.93;;
11098;SDS011;12223;42.650;23.364;2022-11-18T08:56:50;59.27;;;48.23;;
11098;SDS011;12223;42.650;23.364;2022-11-18T08:59:17;54.00;;;43.20;;
11098;SDS011;12223;42.650;23.364;2022-11-18T09:01:46;65.40;;;36.63;;
11098;SDS011;12223;42.650;23.364;2022-11-18T09:04:12;61.80;;;37.33;;
11098;SDS011;12223;42.650;23.364;2022-11-18T09:06:39;62.27;;;36.67;;
11098;SDS011;12223;42.650;23.364;2022-11-18T09:09:06;72.03;;;63.67;;
11098;SDS011;12223;42.650;23.364;2022-11-18T09:11:34;79.20;;;64.67;;
11098;SDS011;12223;42.650;23.364;2022-11-18T09:14:02;58.03;;;43.77;;
11098;SDS011;12223;42.650;23.364;2022-11-18T09:16:30;65.07;;;34.83;;
11098;SDS011;12223;42.650;23.364;2022-11-18T09:19:02;61.33;;;40.37;;
11098;SDS011;12223;42.650;23.364;2022-11-18T09:21:29;64.83;;;45.73;;
11098;SDS011;12223;42.650;23.364;2022-11-18T09:23:56;57.37;;;44.60;;
11098;SDS011;12223;42.650;23.364;2022-11-18T09:26:23;80.50;;;72.40;;
11098;SDS011;12223;42.650;23.364;2022-11-18T09:28:51;70.10;;;53.60;;
11098;SDS011;12223;42.650;23.364;2022-11-18T09:31:20;61.37;;;37.90;;
11098;SDS011;12223;42.650;23.364;2022-11-18T09:33:47;62.33;;;36.20;;
11098;SDS011;12223;42.650;23.364;2022-11-18T09:36:15;57.80;;;32.07;;
11098;SDS011;12223;42.650;23.364;2022-11-18T09:38:44;56.40;;;32.10;;
11098;SDS011;12223;42.650;23.364;2022-11-18T09:41:15;59.47;;;33.93;;
11098;SDS011;12223;42.650;23.364;2022-11-18T09:43:51;64.43;;;34.70;;
11098;SDS011;12223;42.650;23.364;2022-11-18T09:46:29;51.37;;;31.03;;
11098;SDS011;12223;42.650;23.364;2022-11-18T09:49:02;60.30;;;32.77;;
11098;SDS011;12223;42.650;23.364;2022-11-18T09:51:40;60.07;;;34.40;;
11098;SDS011;12223;42.650;23.364;2022-11-18T09:54:09;66.50;;;55.50;;
11098;SDS011;12223;42.650;23.364;2022-11-18T09:56:38;52.83;;;36.13;;
11098;SDS011;12223;42.650;23.364;2022-11-18T09:59:06;58.10;;;38.07;;
11098;SDS011;12223;42.650;23.364;2022-11-18T10:01:36;62.10;;;42.53;;
11098;SDS011;12223;42.650;23.364;2022-11-18T10:04:03;65.40;;;43.23;;
11098;SDS011;12223;42.650;23.364;2022-11-18T10:06:30;53.17;;;31.80;;
11098;SDS011;12223;42.650;23.364;2022-11-18T10:09:05;51.60;;;34.57;;
11098;SDS011;12223;42.650;23.364;2022-11-18T10:11:51;57.40;;;33.03;;
11098;SDS011;12223;42.650;23.364;2022-11-18T10:14:31;49.87;;;31.00;;
11098;SDS011;12223;42.650;23.364;2022-11-18T10:17:11;50.20;;;32.27;;
11098;SDS011;12223;42.650;23.364;2022-11-18T10:19:50;68.00;;;61.73;;
11098;SDS011;12223;42.650;23.364;2022-11-18T10:22:23;51.77;;;43.90;;
11098;SDS011;12223;42.650;23.364;2022-11-18T10:24:56;42.50;;;31.30;;
11098;SDS011;12223;42.650;23.364;2022-11-18T10:27:26;105.90;;;97.03;;
11098;SDS011;12223;42.650;23.364;2022-11-18T10:30:00;56.17;;;40.77;;
11098;SDS011;12223;42.650;23.364;2022-11-18T10:32:28;54.03;;;43.37;;
11098;SDS011;12223;42.650;23.364;2022-11-18T10:34:55;72.40;;;65.53;;
11098;SDS011;12223;42.650;23.364;2022-11-18T10:37:24;79.60;;;72.63;;
11098;SDS011;12223;42.650;23.364;2022-11-18T10:39:53;54.97;;;44.93;;
11098;SDS011;12223;42.650;23.364;2022-11-18T10:42:26;49.33;;;35.83;;
11098;SDS011;12223;42.650;23.364;2022-11-18T10:45:13;49.30;;;38.67;;
11098;SDS011;12223;42.650;23.364;2022-11-18T10:47:41;43.60;;;37.37;;
11098;SDS011;12223;42.650;23.364;2022-11-18T10:52:54;62.53;;;56.13;;
11098;SDS011;12223;42.650;23.364;2022-11-18T10:55:21;62.33;;;56.17;;
11098;SDS011;12223;42.650;23.364;2022-11-18T10:57:51;48.63;;;34.27;;
11098;SDS011;12223;42.650;23.364;2022-11-18T11:00:31;61.07;;;54.60;;
11098;SDS011;12223;42.650;23.364;2022-11-18T11:06:13;83.60;;;76.10;;
11098;SDS011;12223;42.650;23.364;2022-11-18T11:08:57;56.57;;;46.37;;
11098;SDS011;12223;42.650;23.364;2022-11-18T11:11:26;99.87;;;92.40;;
11098;SDS011;12223;42.650;23.364;2022-11-18T11:14:15;89.67;;;82.13;;
11098;SDS011;12223;42.650;23.364;2022-11-18T11:16:51;47.63;;;37.00;;
11098;SDS011;12223;42.650;23.364;2022-11-18T11:19:33;46.47;;;29.90;;
11098;SDS011;12223;42.650;23.364;2022-11-18T11:22:07;50.97;;;45.57;;
11098;SDS011;12223;42.650;23.364;2022-11-18T11:24:36;40.07;;;28.27;;
11098;SDS011;12223;42.650;23.364;2022-11-18T11:27:05;46.20;;;30.73;;
11098;SDS011;12223;42.650;23.364;2022-11-18T11:29:51;50.77;;;31.07;;
11098;SDS011;12223;42.650;23.364;2022-11-18T11:32:28;47.03;;;29.42;;
11098;SDS011;12223;42.650;23.364;2022-11-18T11:35:05;50.13;;;36.30;;
11098;SDS011;12223;42.650;23.364;2022-11-18T11:37:40;52.03;;;41.10;;
11098;SDS011;12223;42.650;23.364;2022-11-18T11:43:12;50.60;;;35.40;;
11098;SDS011;12223;42.650;23.364;2022-11-18T11:45:56;52.87;;;46.80;;
11098;SDS011;12223;42.650;23.364;2022-11-18T11:48:37;84.90;;;77.67;;
11098;SDS011;12223;42.650;23.364;2022-11-18T11:51:18;74.63;;;68.40;;
11098;SDS011;12223;42.650;23.364;2022-11-18T11:53:56;46.97;;;38.00;;
11098;SDS011;12223;42.650;23.364;2022-11-18T11:56:50;46.40;;;34.10;;
11098;SDS011;12223;42.650;23.364;2022-11-18T11:59:31;50.83;;;40.37;;
11098;SDS011;12223;42.650;23.364;2022-11-18T12:05:06;49.60;;;38.93;;
11098;SDS011;12223;42.650;23.364;2022-11-18T12:07:45;46.87;;;39.03;;
11098;SDS011;12223;42.650;23.364;2022-11-18T12:10:24;77.13;;;71.13;;
11098;SDS011;12223;42.650;23.364;2022-11-18T12:12:59;43.93;;;33.80;;
11098;SDS011;12223;42.650;23.364;2022-11-18T12:15:42;45.57;;;39.37;;
11098;SDS011;12223;42.650;23.364;2022-11-18T12:18:20;93.27;;;87.07;;
11098;SDS011;12223;42.650;23.364;2022-11-18T12:20:52;43.33;;;39.53;;
11098;SDS011;12223;42.650;23.364;2022-11-18T12:23:20;64.03;;;59.83;;
11098;SDS011;12223;42.650;23.364;2022-11-18T12:25:52;46.93;;;42.57;;
11098;SDS011;12223;42.650;23.364;2022-11-18T12:28:26;33.80;;;28.70;;
11098;SDS011;12223;42.650;23.364;2022-11-18T12:34:00;51.90;;;48.00;;
11098;SDS011;12223;42.650;23.364;2022-11-18T12:36:30;39.37;;;35.53;;
11098;SDS011;12223;42.650;23.364;2022-11-18T12:38:58;24.97;;;20.37;;
11098;SDS011;12223;42.650;23.364;2022-11-18T12:42:08;29.33;;;22.80;;
11098;SDS011;12223;42.650;23.364;2022-11-18T12:48:32;26.33;;;20.03;;
11098;SDS011;12223;42.650;23.364;2022-11-18T12:57:01;25.53;;;22.47;;
11098;SDS011;12223;42.650;23.364;2022-11-18T12:59:31;27.52;;;20.13;;
11098;SDS011;12223;42.650;23.364;2022-11-18T13:02:03;24.30;;;18.83;;
11098;SDS011;12223;42.650;23.364;2022-11-18T13:04:45;23.57;;;19.70;;
11098;SDS011;12223;42.650;23.364;2022-11-18T13:07:28;20.90;;;18.45;;
11098;SDS011;12223;42.650;23.364;2022-11-18T13:10:19;22.13;;;16.88;;
11098;SDS011;12223;42.650;23.364;2022-11-18T13:12:48;17.75;;;13.50;;
11098;SDS011;12223;42.650;23.364;2022-11-18T13:15:16;18.67;;;16.55;;
11098;SDS011;12223;42.650;23.364;2022-11-18T13:18:04;21.15;;;15.88;;
11098;SDS011;12223;42.650;23.364;2022-11-18T13:20:34;20.02;;;16.73;;
11098;SDS011;12223;42.650;23.364;2022-11-18T13:23:03;13.35;;;11.95;;
11098;SDS011;12223;42.650;23.364;2022-11-18T13:26:14;13.98;;;12.57;;
11098;SDS011;12223;42.650;23.364;2022-11-18T13:28:56;16.35;;;12.98;;
11098;SDS011;12223;42.650;23.364;2022-11-18T13:31:34;19.80;;;18.02;;
11098;SDS011;12223;42.650;23.364;2022-11-18T13:34:16;17.55;;;15.30;;
11098;SDS011;12223;42.650;23.364;2022-11-18T13:36:48;17.27;;;15.45;;
11098;SDS011;12223;42.650;23.364;2022-11-18T13:39:17;11.65;;;10.55;;
11098;SDS011;12223;42.650;23.364;2022-11-18T13:41:58;15.13;;;12.13;;
11098;SDS011;12223;42.650;23.364;2022-11-18T13:44:27;18.58;;;14.60;;
11098;SDS011;12223;42.650;23.364;2022-11-18T13:46:57;18.55;;;16.90;;
11098;SDS011;12223;42.650;23.364;2022-11-18T13:49:32;19.77;;;18.08;;
11098;SDS011;12223;42.650;23.364;2022-11-18T13:52:07;18.35;;;15.38;;
11098;SDS011;12223;42.650;23.364;2022-11-18T13:54:37;16.05;;;14.77;;
11098;SDS011;12223;42.650;23.364;2022-11-18T13:57:13;13.77;;;12.50;;
11098;SDS011;12223;42.650;23.364;2022-11-18T13:59:47;10.98;;;10.00;;
11098;SDS011;12223;42.650;23.364;2022-11-18T14:02:15;8.07;;;6.25;;
11098;SDS011;12223;42.650;23.364;2022-11-18T14:04:48;6.55;;;5.82;;
11098;SDS011;12223;42.650;23.364;2022-11-18T14:07:22;9.00;;;8.20;;
11098;SDS011;12223;42.650;23.364;2022-11-18T14:09:52;33.83;;;32.25;;
11098;SDS011;12223;42.650;23.364;2022-11-18T14:12:30;29.52;;;28.17;;
11098;SDS011;12223;42.650;23.364;2022-11-18T14:15:13;9.90;;;9.40;;
11098;SDS011;12223;42.650;23.364;2022-11-18T14:17:48;8.50;;;7.85;;
11098;SDS011;12223;42.650;23.364;2022-11-18T14:20:17;9.20;;;8.40;;
11098;SDS011;12223;42.650;23.364;2022-11-18T14:22:45;9.82;;;9.02;;
11098;SDS011;12223;42.650;23.364;2022-11-18T14:25:16;9.88;;;9.05;;
11098;SDS011;12223;42.650;23.364;2022-11-18T14:27:50;9.00;;;8.50;;
11098;SDS011;12223;42.650;23.364;2022-11-18T14:30:25;14.50;;;13.70;;
11098;SDS011;12223;42.650;23.364;2022-11-18T14:33:13;8.05;;;7.75;;
11098;SDS011;12223;42.650;23.364;2022-11-18T14:35:42;10.05;;;9.25;;
11098;SDS011;12223;42.650;23.364;2022-11-18T14:38:12;25.30;;;24.10;;
11098;SDS011;12223;42.650;23.364;2022-11-18T14:40:40;14.27;;;13.48;;
11098;SDS011;12223;42.650;23.364;2022-11-18T14:43:08;16.92;;;15.90;;
11098;SDS011;12223;42.650;23.364;2022-11-18T14:45:36;24.02;;;22.88;;
11098;SDS011;12223;42.650;23.364;2022-11-18T14:48:05;25.23;;;23.92;;
11098;SDS011;12223;42.650;23.364;2022-11-18T14:50:36;27.48;;;26.08;;
11098;SDS011;12223;42.650;23.364;2022-11-18T14:53:03;15.30;;;14.32;;
11098;SDS011;12223;42.650;23.364;2022-11-18T14:55:30;14.25;;;13.00;;
11098;SDS011;12223;42.650;23.364;2022-11-18T14:57:56;15.52;;;14.60;;